AUA014 LSZH-LOWW
Flight info
| Callsign | AUA014 |
|---|---|
| Flight time | 1h 6m |
| Altitude | 33000 |
| Route | DEGES Z2 XEBIX N871 BADVI L725 INPUL DCT NEMAL NEMAL2W |
| Aircraft | A20N/M-SDE2E3FGHIRWXY/LB1 |
Departure
| Time | 2026-05-05 18:13 |
|---|---|
| Airport | Zürich Airport (LSZH) |
Arrival
| Time | 2026-05-05 19:19 |
|---|---|
| Airport | Vienna International Airport (LOWW) |
| Time | Latitude | Longitude | Altitude | Speed | Heading |
|---|---|---|---|---|---|
| 2026-05-05 17:40 | 47.45418 | 8.55802 | 1397 ft | 0 kts | 186° |
| 2026-05-05 18:04 | 47.45427 | 8.55803 | 1396 ft | 2 kts | 186° |
| 2026-05-05 18:05 | 47.45442 | 8.55806 | 1404 ft | 2 kts | 186° |
| 2026-05-05 18:05 | 47.45457 | 8.55808 | 1400 ft | 2 kts | 183° |
| 2026-05-05 18:05 | 47.45472 | 8.55807 | 1405 ft | 2 kts | 165° |
| 2026-05-05 18:05 | 47.45486 | 8.55799 | 1397 ft | 2 kts | 146° |
| 2026-05-05 18:06 | 47.45497 | 8.55786 | 1401 ft | 2 kts | 128° |
| 2026-05-05 18:06 | 47.45503 | 8.55774 | 1407 ft | 2 kts | 116° |
| 2026-05-05 18:06 | 47.45508 | 8.55753 | 1402 ft | 0 kts | 97° |
| 2026-05-05 18:08 | 47.45508 | 8.55756 | 1396 ft | 2 kts | 97° |
| 2026-05-05 18:09 | 47.45504 | 8.55799 | 1396 ft | 7 kts | 97° |
| 2026-05-05 18:09 | 47.45497 | 8.55884 | 1396 ft | 10 kts | 97° |
| 2026-05-05 18:09 | 47.45488 | 8.55999 | 1402 ft | 11 kts | 96° |
| 2026-05-05 18:09 | 47.45479 | 8.56125 | 1396 ft | 14 kts | 96° |
| 2026-05-05 18:10 | 47.45485 | 8.56229 | 1399 ft | 10 kts | 64° |
| 2026-05-05 18:10 | 47.45536 | 8.56327 | 1399 ft | 14 kts | 50° |
| 2026-05-05 18:10 | 47.45586 | 8.56421 | 1400 ft | 13 kts | 59° |
| 2026-05-05 18:10 | 47.45588 | 8.56560 | 1404 ft | 15 kts | 97° |
| 2026-05-05 18:11 | 47.45575 | 8.56728 | 1402 ft | 18 kts | 96° |
| 2026-05-05 18:11 | 47.45562 | 8.56896 | 1397 ft | 11 kts | 96° |
| 2026-05-05 18:11 | 47.45581 | 8.57004 | 1403 ft | 10 kts | 44° |
| 2026-05-05 18:11 | 47.45653 | 8.57019 | 1397 ft | 10 kts | 336° |
| 2026-05-05 18:12 | 47.45667 | 8.56976 | 1402 ft | 0 kts | 272° |
| 2026-05-05 18:12 | 47.45669 | 8.56937 | 1398 ft | 25 kts | 275° |
| 2026-05-05 18:12 | 47.45712 | 8.56292 | 1398 ft | 98 kts | 276° |
| 2026-05-05 18:12 | 47.45803 | 8.54993 | 1436 ft | 148 kts | 274° |
| 2026-05-05 18:13 | 47.45928 | 8.53586 | 2235 ft | 129 kts | 276° |
| 2026-05-05 18:13 | 47.46071 | 8.52337 | 2946 ft | 120 kts | 278° |
| 2026-05-05 18:13 | 47.46243 | 8.51107 | 3383 ft | 125 kts | 279° |
| 2026-05-05 18:13 | 47.46451 | 8.49861 | 3889 ft | 122 kts | 281° |
| 2026-05-05 18:14 | 47.46687 | 8.48644 | 4176 ft | 125 kts | 283° |
| 2026-05-05 18:14 | 47.46957 | 8.47426 | 4393 ft | 127 kts | 285° |
| 2026-05-05 18:14 | 47.47180 | 8.46168 | 4592 ft | 127 kts | 268° |
| 2026-05-05 18:14 | 47.46994 | 8.44917 | 4859 ft | 124 kts | 242° |
| 2026-05-05 18:15 | 47.46648 | 8.44238 | 5022 ft | 129 kts | 225° |
| 2026-05-05 18:15 | 47.45537 | 8.43522 | 5781 ft | 132 kts | 189° |
| 2026-05-05 18:15 | 47.44649 | 8.43747 | 6527 ft | 135 kts | 164° |
| 2026-05-05 18:15 | 47.43833 | 8.44590 | 7024 ft | 152 kts | 138° |
| 2026-05-05 18:16 | 47.43289 | 8.45942 | 7695 ft | 155 kts | 113° |
| 2026-05-05 18:16 | 47.43128 | 8.47536 | 8322 ft | 159 kts | 97° |
| 2026-05-05 18:16 | 47.43089 | 8.49174 | 8938 ft | 161 kts | 95° |
| 2026-05-05 18:16 | 47.43090 | 8.50273 | 9327 ft | 163 kts | 94° |
| 2026-05-05 18:17 | 47.43157 | 8.52521 | 10128 ft | 164 kts | 90° |
| 2026-05-05 18:17 | 47.43222 | 8.53638 | 10491 ft | 166 kts | 88° |
| 2026-05-05 18:17 | 47.43361 | 8.55352 | 11001 ft | 170 kts | 85° |
| 2026-05-05 18:17 | 47.43618 | 8.57630 | 11731 ft | 172 kts | 84° |
| 2026-05-05 18:18 | 47.43695 | 8.58826 | 12047 ft | 174 kts | 92° |
| 2026-05-05 18:18 | 47.43708 | 8.60607 | 12610 ft | 173 kts | 95° |
| 2026-05-05 18:18 | 47.43671 | 8.62381 | 13172 ft | 174 kts | 97° |
| 2026-05-05 18:18 | 47.43596 | 8.64191 | 13613 ft | 185 kts | 98° |
| 2026-05-05 18:19 | 47.43467 | 8.66395 | 13368 ft | 239 kts | 99° |
| 2026-05-05 18:19 | 47.43286 | 8.68913 | 13938 ft | 253 kts | 99° |
| 2026-05-05 18:19 | 47.43115 | 8.71478 | 14804 ft | 253 kts | 95° |
| 2026-05-05 18:19 | 47.43152 | 8.74104 | 15558 ft | 261 kts | 88° |
| 2026-05-05 18:20 | 47.43260 | 8.76829 | 16208 ft | 270 kts | 90° |
| 2026-05-05 18:20 | 47.43339 | 8.79641 | 16919 ft | 277 kts | 91° |
| 2026-05-05 18:20 | 47.43377 | 8.82498 | 17663 ft | 279 kts | 94° |
| 2026-05-05 18:20 | 47.43292 | 8.85423 | 18126 ft | 295 kts | 96° |
| 2026-05-05 18:21 | 47.43161 | 8.88565 | 18320 ft | 318 kts | 96° |
| 2026-05-05 18:21 | 47.43052 | 8.91946 | 18511 ft | 340 kts | 95° |
| 2026-05-05 18:21 | 47.42973 | 8.95548 | 18707 ft | 362 kts | 94° |
| 2026-05-05 18:21 | 47.42912 | 8.99365 | 18891 ft | 382 kts | 93° |
| 2026-05-05 18:22 | 47.42859 | 9.03329 | 19191 ft | 397 kts | 93° |
| 2026-05-05 18:22 | 47.42807 | 9.07484 | 19870 ft | 400 kts | 93° |
| 2026-05-05 18:22 | 47.42754 | 9.11602 | 20558 ft | 403 kts | 93° |
| 2026-05-05 18:22 | 47.42697 | 9.15710 | 21196 ft | 407 kts | 94° |
| 2026-05-05 18:23 | 47.42637 | 9.19898 | 21868 ft | 411 kts | 94° |
| 2026-05-05 18:23 | 47.42572 | 9.24140 | 22495 ft | 415 kts | 94° |
| 2026-05-05 18:23 | 47.42506 | 9.28420 | 23139 ft | 419 kts | 94° |
| 2026-05-05 18:23 | 47.42437 | 9.32739 | 23717 ft | 423 kts | 94° |
| 2026-05-05 18:24 | 47.42367 | 9.37101 | 24225 ft | 427 kts | 94° |
| 2026-05-05 18:24 | 47.42294 | 9.41510 | 24725 ft | 432 kts | 94° |
| 2026-05-05 18:24 | 47.42218 | 9.45963 | 25205 ft | 436 kts | 94° |
| 2026-05-05 18:24 | 47.42139 | 9.50454 | 25695 ft | 440 kts | 95° |
| 2026-05-05 18:25 | 47.42059 | 9.54989 | 26152 ft | 444 kts | 95° |
| 2026-05-05 18:25 | 47.42005 | 9.58008 | 26459 ft | 446 kts | 95° |
| 2026-05-05 18:25 | 47.41892 | 9.64166 | 27054 ft | 451 kts | 95° |
| 2026-05-05 18:25 | 47.41804 | 9.68819 | 27485 ft | 455 kts | 95° |
| 2026-05-05 18:26 | 47.41713 | 9.73508 | 27920 ft | 459 kts | 95° |
| 2026-05-05 18:26 | 47.41620 | 9.78233 | 28327 ft | 462 kts | 95° |
| 2026-05-05 18:26 | 47.41523 | 9.82996 | 28719 ft | 466 kts | 95° |
| 2026-05-05 18:26 | 47.41424 | 9.87794 | 29097 ft | 470 kts | 95° |
| 2026-05-05 18:27 | 47.41322 | 9.92625 | 29467 ft | 473 kts | 95° |
| 2026-05-05 18:27 | 47.41217 | 9.97498 | 29827 ft | 476 kts | 96° |
| 2026-05-05 18:27 | 47.41109 | 10.02402 | 30137 ft | 479 kts | 96° |
| 2026-05-05 18:27 | 47.40998 | 10.07339 | 30412 ft | 483 kts | 96° |
| 2026-05-05 18:28 | 47.40771 | 10.17237 | 31121 ft | 488 kts | 96° |
| 2026-05-05 18:28 | 47.40654 | 10.22255 | 31461 ft | 490 kts | 96° |
| 2026-05-05 18:28 | 47.40534 | 10.27268 | 31938 ft | 489 kts | 96° |
| 2026-05-05 18:29 | 47.40413 | 10.32274 | 32387 ft | 488 kts | 97° |
| 2026-05-05 18:29 | 47.40288 | 10.37282 | 32732 ft | 488 kts | 97° |
| 2026-05-05 18:29 | 47.40195 | 10.42281 | 32844 ft | 488 kts | 94° |
| 2026-05-05 18:29 | 47.40454 | 10.47283 | 32849 ft | 491 kts | 85° |
| 2026-05-05 18:30 | 47.42239 | 10.57084 | 32843 ft | 499 kts | 72° |
| 2026-05-05 18:30 | 47.44611 | 10.66681 | 32847 ft | 497 kts | 73° |
| 2026-05-05 18:31 | 47.46958 | 10.76278 | 32860 ft | 496 kts | 73° |
| 2026-05-05 18:31 | 47.49287 | 10.85885 | 32859 ft | 499 kts | 73° |
| 2026-05-05 18:32 | 47.51606 | 10.95492 | 32849 ft | 495 kts | 73° |
| 2026-05-05 18:32 | 47.53896 | 11.05016 | 32840 ft | 495 kts | 73° |
| 2026-05-05 18:33 | 47.56195 | 11.14615 | 32840 ft | 494 kts | 73° |
| 2026-05-05 18:33 | 47.58492 | 11.24220 | 32851 ft | 496 kts | 73° |
| 2026-05-05 18:34 | 47.60779 | 11.33826 | 32839 ft | 493 kts | 73° |
| 2026-05-05 18:34 | 47.63024 | 11.43432 | 32840 ft | 493 kts | 75° |
| 2026-05-05 18:35 | 47.64989 | 11.53136 | 32831 ft | 491 kts | 77° |
| 2026-05-05 18:35 | 47.66925 | 11.62849 | 32830 ft | 491 kts | 76° |
| 2026-05-05 18:36 | 47.68885 | 11.72536 | 32831 ft | 490 kts | 76° |
| 2026-05-05 18:36 | 47.70833 | 11.82223 | 32823 ft | 489 kts | 77° |
| 2026-05-05 18:37 | 47.72655 | 11.91935 | 32817 ft | 487 kts | 78° |
| 2026-05-05 18:37 | 47.74133 | 12.01717 | 32812 ft | 485 kts | 82° |
| 2026-05-05 18:38 | 47.75495 | 12.11468 | 32821 ft | 485 kts | 82° |
| 2026-05-05 18:38 | 47.76865 | 12.21280 | 32823 ft | 485 kts | 82° |
| 2026-05-05 18:39 | 47.78221 | 12.31091 | 32823 ft | 484 kts | 82° |
| 2026-05-05 18:39 | 47.79565 | 12.40897 | 32824 ft | 484 kts | 82° |
| 2026-05-05 18:40 | 47.80898 | 12.50699 | 32818 ft | 483 kts | 82° |
| 2026-05-05 18:40 | 47.82222 | 12.60493 | 32811 ft | 483 kts | 82° |
| 2026-05-05 18:41 | 47.83525 | 12.70299 | 32806 ft | 483 kts | 82° |
| 2026-05-05 18:41 | 47.84738 | 12.80122 | 32805 ft | 481 kts | 84° |
| 2026-05-05 18:42 | 47.85731 | 12.89976 | 32793 ft | 481 kts | 84° |
| 2026-05-05 18:42 | 47.86730 | 12.99828 | 32796 ft | 481 kts | 84° |
| 2026-05-05 18:43 | 47.87743 | 13.09673 | 32803 ft | 481 kts | 84° |
| 2026-05-05 18:43 | 47.88753 | 13.19523 | 32812 ft | 481 kts | 84° |
| 2026-05-05 18:44 | 47.89754 | 13.29362 | 32808 ft | 480 kts | 84° |
| 2026-05-05 18:44 | 47.90745 | 13.39199 | 32812 ft | 480 kts | 84° |
| 2026-05-05 18:45 | 47.91677 | 13.49039 | 32803 ft | 478 kts | 87° |
| 2026-05-05 18:45 | 47.91762 | 13.58895 | 32798 ft | 475 kts | 93° |
| 2026-05-05 18:46 | 47.91719 | 13.68737 | 32789 ft | 474 kts | 92° |
| 2026-05-05 18:46 | 47.91671 | 13.78564 | 32781 ft | 474 kts | 92° |
| 2026-05-05 18:47 | 47.91611 | 13.88370 | 32776 ft | 473 kts | 92° |
| 2026-05-05 18:47 | 47.91541 | 13.98134 | 32770 ft | 473 kts | 92° |
| 2026-05-05 18:48 | 47.91465 | 14.07929 | 32766 ft | 472 kts | 92° |
| 2026-05-05 18:48 | 47.91379 | 14.17706 | 32762 ft | 472 kts | 92° |
| 2026-05-05 18:49 | 47.91280 | 14.27476 | 32760 ft | 471 kts | 92° |
| 2026-05-05 18:49 | 47.91173 | 14.37246 | 32748 ft | 471 kts | 92° |
| 2026-05-05 18:50 | 47.91057 | 14.46997 | 32658 ft | 469 kts | 92° |
| 2026-05-05 18:50 | 47.91000 | 14.51856 | 32121 ft | 469 kts | 93° |
| 2026-05-05 18:50 | 47.90941 | 14.56726 | 31333 ft | 471 kts | 93° |
| 2026-05-05 18:51 | 47.90880 | 14.61625 | 30376 ft | 475 kts | 94° |
| 2026-05-05 18:51 | 47.90815 | 14.66568 | 29284 ft | 479 kts | 94° |
| 2026-05-05 18:51 | 47.90746 | 14.71543 | 28261 ft | 480 kts | 94° |
| 2026-05-05 18:51 | 47.90677 | 14.76486 | 27491 ft | 475 kts | 94° |
| 2026-05-05 18:52 | 47.90607 | 14.81377 | 26766 ft | 469 kts | 94° |
| 2026-05-05 18:52 | 47.90536 | 14.86214 | 26051 ft | 464 kts | 94° |
| 2026-05-05 18:52 | 47.90463 | 14.90997 | 25320 ft | 459 kts | 94° |
| 2026-05-05 18:52 | 47.90388 | 14.95728 | 24605 ft | 455 kts | 94° |
| 2026-05-05 18:53 | 47.90311 | 15.00433 | 23926 ft | 451 kts | 94° |
| 2026-05-05 18:53 | 47.90234 | 15.05078 | 23249 ft | 447 kts | 94° |
| 2026-05-05 18:53 | 47.90155 | 15.09691 | 22493 ft | 443 kts | 94° |
| 2026-05-05 18:53 | 47.90076 | 15.14253 | 21792 ft | 438 kts | 94° |
| 2026-05-05 18:54 | 47.89995 | 15.18770 | 21035 ft | 435 kts | 94° |
| 2026-05-05 18:54 | 47.89913 | 15.23245 | 20336 ft | 430 kts | 94° |
| 2026-05-05 18:54 | 47.89831 | 15.27685 | 19655 ft | 427 kts | 94° |
| 2026-05-05 18:54 | 47.89748 | 15.32084 | 18978 ft | 423 kts | 94° |
| 2026-05-05 18:55 | 47.89665 | 15.36444 | 18290 ft | 419 kts | 94° |
| 2026-05-05 18:55 | 47.89583 | 15.40771 | 17586 ft | 416 kts | 94° |
| 2026-05-05 18:55 | 47.89501 | 15.45054 | 17002 ft | 409 kts | 94° |
| 2026-05-05 18:55 | 47.89211 | 15.49173 | 16813 ft | 390 kts | 102° |
| 2026-05-05 18:56 | 47.88625 | 15.53002 | 16784 ft | 372 kts | 107° |
| 2026-05-05 18:56 | 47.87983 | 15.56795 | 16779 ft | 384 kts | 107° |
| 2026-05-05 18:56 | 47.87336 | 15.60672 | 16788 ft | 385 kts | 107° |
| 2026-05-05 18:56 | 47.86693 | 15.64541 | 16790 ft | 385 kts | 107° |
| 2026-05-05 18:57 | 47.86045 | 15.68415 | 16789 ft | 385 kts | 107° |
| 2026-05-05 18:57 | 47.85395 | 15.72288 | 16789 ft | 386 kts | 107° |
| 2026-05-05 18:57 | 47.84746 | 15.76157 | 16788 ft | 385 kts | 107° |
| 2026-05-05 18:57 | 47.84096 | 15.80019 | 16785 ft | 385 kts | 107° |
| 2026-05-05 18:58 | 47.83442 | 15.83882 | 16789 ft | 385 kts | 107° |
| 2026-05-05 18:58 | 47.82786 | 15.87747 | 16787 ft | 385 kts | 107° |
| 2026-05-05 18:58 | 47.82130 | 15.91604 | 16728 ft | 384 kts | 107° |
| 2026-05-05 18:58 | 47.81475 | 15.95451 | 16339 ft | 384 kts | 107° |
| 2026-05-05 18:59 | 47.80817 | 15.99319 | 15633 ft | 388 kts | 107° |
| 2026-05-05 18:59 | 47.80154 | 16.03196 | 14788 ft | 392 kts | 107° |
| 2026-05-05 18:59 | 47.79474 | 16.07160 | 14083 ft | 391 kts | 107° |
| 2026-05-05 18:59 | 47.78804 | 16.11059 | 13497 ft | 387 kts | 107° |
| 2026-05-05 19:00 | 47.78144 | 16.14887 | 13128 ft | 375 kts | 107° |
| 2026-05-05 19:00 | 47.77514 | 16.18555 | 13022 ft | 358 kts | 107° |
| 2026-05-05 19:00 | 47.77206 | 16.22176 | 12863 ft | 356 kts | 90° |
| 2026-05-05 19:00 | 47.77711 | 16.25833 | 12686 ft | 370 kts | 69° |
| 2026-05-05 19:01 | 47.78926 | 16.29242 | 12524 ft | 376 kts | 61° |
| 2026-05-05 19:01 | 47.80243 | 16.32586 | 12351 ft | 372 kts | 60° |
| 2026-05-05 19:01 | 47.81110 | 16.34771 | 12244 ft | 369 kts | 60° |
| 2026-05-05 19:01 | 47.82841 | 16.39147 | 12013 ft | 366 kts | 61° |
| 2026-05-05 19:02 | 47.84126 | 16.42417 | 11853 ft | 366 kts | 61° |
| 2026-05-05 19:02 | 47.85406 | 16.45692 | 11789 ft | 365 kts | 61° |
| 2026-05-05 19:02 | 47.86678 | 16.48956 | 11790 ft | 365 kts | 61° |
| 2026-05-05 19:02 | 47.87950 | 16.52226 | 11788 ft | 364 kts | 61° |
| 2026-05-05 19:03 | 47.88786 | 16.54379 | 11792 ft | 362 kts | 61° |
| 2026-05-05 19:03 | 47.90469 | 16.58712 | 11780 ft | 362 kts | 61° |
| 2026-05-05 19:03 | 47.91307 | 16.60872 | 11774 ft | 365 kts | 62° |
| 2026-05-05 19:03 | 47.93001 | 16.65249 | 11485 ft | 365 kts | 62° |
| 2026-05-05 19:04 | 47.94251 | 16.68487 | 10974 ft | 365 kts | 62° |
| 2026-05-05 19:04 | 47.95109 | 16.70709 | 10554 ft | 366 kts | 62° |
| 2026-05-05 19:04 | 47.96360 | 16.73945 | 10366 ft | 353 kts | 62° |
| 2026-05-05 19:04 | 47.97561 | 16.77057 | 10217 ft | 339 kts | 62° |
| 2026-05-05 19:05 | 47.98943 | 16.79804 | 10080 ft | 327 kts | 43° |
| 2026-05-05 19:05 | 48.00159 | 16.81079 | 9957 ft | 320 kts | 26° |
| 2026-05-05 19:05 | 48.00881 | 16.81544 | 9872 ft | 316 kts | 17° |
| 2026-05-05 19:05 | 48.02992 | 16.81916 | 9780 ft | 298 kts | 351° |
| 2026-05-05 19:06 | 48.04922 | 16.80984 | 9723 ft | 294 kts | 328° |
| 2026-05-05 19:06 | 48.06690 | 16.79309 | 9614 ft | 305 kts | 322° |
| 2026-05-05 19:06 | 48.08450 | 16.77537 | 9470 ft | 304 kts | 323° |
| 2026-05-05 19:06 | 48.10246 | 16.75879 | 9332 ft | 302 kts | 326° |
| 2026-05-05 19:07 | 48.12071 | 16.74335 | 9194 ft | 301 kts | 328° |
| 2026-05-05 19:07 | 48.13920 | 16.72858 | 9057 ft | 301 kts | 329° |
| 2026-05-05 19:07 | 48.15775 | 16.71412 | 8917 ft | 299 kts | 330° |
| 2026-05-05 19:07 | 48.17619 | 16.69991 | 8782 ft | 297 kts | 330° |
| 2026-05-05 19:08 | 48.19467 | 16.68573 | 8657 ft | 299 kts | 329° |
| 2026-05-05 19:08 | 48.21312 | 16.67152 | 8419 ft | 297 kts | 330° |
| 2026-05-05 19:08 | 48.23227 | 16.65991 | 8032 ft | 299 kts | 341° |
| 2026-05-05 19:08 | 48.25204 | 16.65198 | 7906 ft | 287 kts | 342° |
| 2026-05-05 19:09 | 48.27088 | 16.64420 | 7775 ft | 275 kts | 342° |
| 2026-05-05 19:09 | 48.28894 | 16.63664 | 7614 ft | 265 kts | 342° |
| 2026-05-05 19:09 | 48.30654 | 16.62920 | 7261 ft | 262 kts | 342° |
| 2026-05-05 19:09 | 48.32399 | 16.62178 | 6882 ft | 260 kts | 342° |
| 2026-05-05 19:10 | 48.34135 | 16.61440 | 6482 ft | 259 kts | 342° |
| 2026-05-05 19:10 | 48.35870 | 16.60704 | 6121 ft | 257 kts | 342° |
| 2026-05-05 19:10 | 48.37549 | 16.59996 | 6003 ft | 244 kts | 342° |
| 2026-05-05 19:10 | 48.39097 | 16.59151 | 5863 ft | 230 kts | 323° |
| 2026-05-05 19:11 | 48.40094 | 16.57449 | 5755 ft | 210 kts | 288° |
| 2026-05-05 19:11 | 48.40258 | 16.55403 | 5546 ft | 193 kts | 258° |
| 2026-05-05 19:11 | 48.40011 | 16.53413 | 5148 ft | 192 kts | 255° |
| 2026-05-05 19:11 | 48.39747 | 16.51501 | 5006 ft | 181 kts | 255° |
| 2026-05-05 19:12 | 48.39335 | 16.49728 | 4999 ft | 186 kts | 232° |
| 2026-05-05 19:12 | 48.38267 | 16.48550 | 4996 ft | 196 kts | 206° |
| 2026-05-05 19:12 | 48.37044 | 16.47698 | 4997 ft | 193 kts | 202° |
| 2026-05-05 19:12 | 48.35719 | 16.47608 | 4997 ft | 196 kts | 170° |
| 2026-05-05 19:13 | 48.34404 | 16.48212 | 4988 ft | 199 kts | 163° |
| 2026-05-05 19:13 | 48.33091 | 16.48834 | 4853 ft | 196 kts | 166° |
| 2026-05-05 19:13 | 48.31784 | 16.49390 | 4596 ft | 194 kts | 167° |
| 2026-05-05 19:13 | 48.30495 | 16.49942 | 4335 ft | 190 kts | 167° |
| 2026-05-05 19:14 | 48.29238 | 16.50478 | 4090 ft | 187 kts | 167° |
| 2026-05-05 19:14 | 48.27991 | 16.51010 | 3837 ft | 184 kts | 168° |
| 2026-05-05 19:14 | 48.26768 | 16.51531 | 3595 ft | 181 kts | 168° |
| 2026-05-05 19:14 | 48.25575 | 16.52041 | 3366 ft | 177 kts | 168° |
| 2026-05-05 19:15 | 48.24385 | 16.52546 | 3133 ft | 178 kts | 168° |
| 2026-05-05 19:15 | 48.23200 | 16.53051 | 2899 ft | 176 kts | 168° |
| 2026-05-05 19:15 | 48.22038 | 16.53545 | 2670 ft | 172 kts | 167° |
| 2026-05-05 19:15 | 48.20903 | 16.54029 | 2443 ft | 164 kts | 167° |
| 2026-05-05 19:16 | 48.19903 | 16.54458 | 2255 ft | 139 kts | 168° |
| 2026-05-05 19:16 | 48.19041 | 16.54823 | 2073 ft | 119 kts | 167° |
| 2026-05-05 19:16 | 48.18271 | 16.55148 | 1909 ft | 115 kts | 167° |
| 2026-05-05 19:16 | 48.17507 | 16.55472 | 1767 ft | 114 kts | 166° |
| 2026-05-05 19:17 | 48.16758 | 16.55790 | 1619 ft | 108 kts | 165° |
| 2026-05-05 19:17 | 48.16029 | 16.56101 | 1474 ft | 112 kts | 165° |
| 2026-05-05 19:17 | 48.15268 | 16.56421 | 1316 ft | 114 kts | 166° |
| 2026-05-05 19:17 | 48.14503 | 16.56748 | 1157 ft | 116 kts | 165° |
| 2026-05-05 19:18 | 48.13731 | 16.57075 | 1002 ft | 114 kts | 165° |
| 2026-05-05 19:18 | 48.12984 | 16.57389 | 812 ft | 110 kts | 166° |
| 2026-05-05 19:18 | 48.12254 | 16.57697 | 714 ft | 111 kts | 165° |
| 2026-05-05 19:18 | 48.11513 | 16.58016 | 637 ft | 108 kts | 165° |
| 2026-05-05 19:19 | 48.10856 | 16.58282 | 615 ft | 81 kts | 163° |
| 2026-05-05 19:19 | 48.10501 | 16.58431 | 617 ft | 31 kts | 164° |
| 2026-05-05 19:19 | 48.10327 | 16.58459 | 609 ft | 24 kts | 177° |
| 2026-05-05 19:19 | 48.10206 | 16.58429 | 618 ft | 10 kts | 193° |
| 2026-05-05 19:20 | 48.10146 | 16.58382 | 616 ft | 10 kts | 239° |
| 2026-05-05 19:20 | 48.10183 | 16.58298 | 614 ft | 13 kts | 343° |
| 2026-05-05 19:20 | 48.10283 | 16.58257 | 609 ft | 17 kts | 344° |
| 2026-05-05 19:20 | 48.10411 | 16.58201 | 619 ft | 21 kts | 343° |
| 2026-05-05 19:21 | 48.10566 | 16.58133 | 617 ft | 25 kts | 343° |
| 2026-05-05 19:21 | 48.10747 | 16.58058 | 616 ft | 29 kts | 345° |
| 2026-05-05 19:21 | 48.10951 | 16.57975 | 612 ft | 31 kts | 343° |
| 2026-05-05 19:21 | 48.11154 | 16.57889 | 609 ft | 29 kts | 344° |
| 2026-05-05 19:22 | 48.11357 | 16.57803 | 616 ft | 32 kts | 344° |
| 2026-05-05 19:22 | 48.11554 | 16.57720 | 618 ft | 26 kts | 344° |
| 2026-05-05 19:22 | 48.11690 | 16.57649 | 620 ft | 15 kts | 320° |
| 2026-05-05 19:22 | 48.11729 | 16.57515 | 623 ft | 15 kts | 318° |
| 2026-05-05 19:23 | 48.11809 | 16.57424 | 616 ft | 13 kts | 276° |
| 2026-05-05 19:23 | 48.11836 | 16.57276 | 620 ft | 17 kts | 297° |
| 2026-05-05 19:23 | 48.11863 | 16.57123 | 618 ft | 14 kts | 290° |
| 2026-05-05 19:23 | 48.11874 | 16.57025 | 620 ft | 7 kts | 225° |
| 2026-05-05 19:24 | 48.11829 | 16.56986 | 619 ft | 4 kts | 206° |
| 2026-05-05 19:24 | 48.11828 | 16.56986 | 619 ft | 0 kts | 207° |